createdAt,value
2024-03-06T00:00:18.892Z,7.60
2024-03-06T00:03:06.156Z,7.60
2024-03-06T00:05:53.545Z,7.50
2024-03-06T00:08:40.876Z,7.50
2024-03-06T00:11:28.463Z,7.50
2024-03-06T00:14:15.937Z,7.50
2024-03-06T00:17:05.963Z,7.50
2024-03-06T00:19:53.389Z,7.40
2024-03-06T00:22:41.394Z,7.50
2024-03-06T00:25:28.979Z,7.40
2024-03-06T00:28:16.293Z,7.40
2024-03-06T00:31:03.897Z,7.40
2024-03-06T00:33:51.170Z,7.40
2024-03-06T00:36:39.293Z,7.30
2024-03-06T00:39:27.071Z,7.30
2024-03-06T00:42:15.375Z,7.30
2024-03-06T00:45:03.589Z,7.30
2024-03-06T00:47:51.003Z,7.20
2024-03-06T00:50:38.335Z,7.20
2024-03-06T00:53:25.914Z,7.20
2024-03-06T00:56:13.337Z,7.20
2024-03-06T00:59:00.586Z,7.10
2024-03-06T01:01:49.081Z,7.10
2024-03-06T01:04:36.897Z,7.10
2024-03-06T01:07:24.312Z,7.10
2024-03-06T01:10:11.740Z,7.10
2024-03-06T01:12:59.012Z,7.00
2024-03-06T01:15:46.276Z,7.00
2024-03-06T01:18:34.204Z,7.00
2024-03-06T01:21:22.068Z,6.90
2024-03-06T01:24:09.545Z,6.90
2024-03-06T01:26:58.122Z,6.90
2024-03-06T01:29:45.346Z,6.80
2024-03-06T01:32:34.357Z,6.80
2024-03-06T01:35:21.728Z,6.80
2024-03-06T01:38:10.841Z,6.70
2024-03-06T01:41:00.675Z,6.70
2024-03-06T01:43:48.334Z,6.60
2024-03-06T01:46:35.845Z,6.60
2024-03-06T01:49:32.286Z,6.50
2024-03-06T01:52:24.555Z,6.50
2024-03-06T01:55:13.511Z,6.40
2024-03-06T01:58:01.776Z,6.40
2024-03-06T02:00:50.618Z,6.30
2024-03-06T02:03:39.336Z,6.30
2024-03-06T02:06:27.599Z,6.30
2024-03-06T02:09:15.289Z,6.30
2024-03-06T02:12:02.909Z,6.20
2024-03-06T02:14:50.189Z,6.20
2024-03-06T02:17:38.011Z,6.20
2024-03-06T02:20:26.101Z,6.20
2024-03-06T02:23:13.679Z,6.20
2024-03-06T02:26:01.181Z,6.10
2024-03-06T02:28:53.013Z,6.10
2024-03-06T02:31:41.172Z,6.10
2024-03-06T02:34:28.596Z,6.10
2024-03-06T02:37:15.829Z,6.10
2024-03-06T02:40:03.416Z,6.00
2024-03-06T02:42:50.602Z,6.00
2024-03-06T02:45:37.829Z,6.00
2024-03-06T02:48:25.333Z,5.90
2024-03-06T02:51:12.626Z,5.90
2024-03-06T02:54:00.154Z,5.90
2024-03-06T02:56:47.520Z,5.90
2024-03-06T02:59:34.834Z,5.90
2024-03-06T03:02:22.139Z,5.90
2024-03-06T03:05:10.215Z,5.90
2024-03-06T03:07:57.661Z,5.90
2024-03-06T03:10:46.166Z,5.90
2024-03-06T03:13:35.174Z,5.90
2024-03-06T03:16:22.670Z,5.90
2024-03-06T03:19:10.001Z,5.80
2024-03-06T03:21:57.289Z,5.80
2024-03-06T03:24:44.663Z,5.80
2024-03-06T03:27:31.898Z,5.70
2024-03-06T03:30:22.706Z,5.70
2024-03-06T03:33:10.608Z,5.60
2024-03-06T03:35:58.005Z,5.60
2024-03-06T03:38:45.648Z,5.60
2024-03-06T03:41:32.904Z,5.50
2024-03-06T03:44:20.710Z,5.50
2024-03-06T03:47:09.473Z,5.50
2024-03-06T03:50:03.591Z,5.50
2024-03-06T03:52:59.629Z,5.40
2024-03-06T03:55:47.659Z,5.40
2024-03-06T03:58:34.936Z,5.40
2024-03-06T04:01:22.153Z,5.40
2024-03-06T04:04:09.655Z,5.40
2024-03-06T04:07:00.157Z,5.40
2024-03-06T04:09:48.654Z,5.40
2024-03-06T04:12:35.980Z,5.40
2024-03-06T04:15:23.325Z,5.40
2024-03-06T04:18:11.688Z,5.30
2024-03-06T04:20:59.302Z,5.30
2024-03-06T04:23:46.883Z,5.30
2024-03-06T04:26:34.167Z,5.30
2024-03-06T04:29:24.315Z,5.30
2024-03-06T04:32:11.779Z,5.30
2024-03-06T04:34:59.233Z,5.30
2024-03-06T04:37:46.694Z,5.30
2024-03-06T04:40:35.363Z,5.20
2024-03-06T04:43:23.173Z,5.20
2024-03-06T04:46:15.412Z,5.20
2024-03-06T04:49:02.646Z,5.20
2024-03-06T04:51:49.898Z,5.20
2024-03-06T04:54:37.229Z,5.20
2024-03-06T04:57:24.545Z,5.20
2024-03-06T05:00:12.986Z,5.30
2024-03-06T05:58:35.621Z,5.40
2024-03-06T06:01:23.111Z,5.40
2024-03-06T06:04:10.488Z,5.50
2024-03-06T06:06:57.905Z,5.50
2024-03-06T06:09:45.201Z,5.50
2024-03-06T06:12:32.548Z,5.50
2024-03-06T06:15:19.861Z,5.50
2024-03-06T06:18:07.384Z,5.50
2024-03-06T06:20:54.857Z,5.60
2024-03-06T06:23:42.209Z,5.60
2024-03-06T06:26:29.471Z,5.60
2024-03-06T06:29:17.428Z,5.70
2024-03-06T06:32:06.016Z,5.70
2024-03-06T06:34:53.452Z,5.80
2024-03-06T06:37:41.213Z,5.80
2024-03-06T06:40:29.668Z,5.80
2024-03-06T06:43:16.909Z,5.90
2024-03-06T06:46:08.412Z,5.90
2024-03-06T06:48:55.633Z,6.00
2024-03-06T06:51:42.993Z,6.00
2024-03-06T06:54:30.262Z,6.10
2024-03-06T06:57:17.542Z,6.10
2024-03-06T07:00:14.731Z,6.20
2024-03-06T07:03:02.267Z,6.30
2024-03-06T07:05:49.723Z,6.30
2024-03-06T07:08:37.200Z,6.40
2024-03-06T07:11:25.382Z,6.40
2024-03-06T07:14:18.708Z,6.50
2024-03-06T07:17:06.034Z,6.50
2024-03-06T07:19:54.979Z,6.50
2024-03-06T07:22:43.829Z,6.60
2024-03-06T07:25:31.561Z,6.70
2024-03-06T07:28:20.212Z,6.70
2024-03-06T07:31:09.093Z,6.80
2024-03-06T07:33:58.791Z,6.80
2024-03-06T07:36:47.526Z,7.00
2024-03-06T07:39:36.015Z,7.10
2024-03-06T07:42:23.554Z,7.10
2024-03-06T07:45:10.941Z,7.20
2024-03-06T07:47:58.433Z,7.30
2024-03-06T07:50:46.051Z,7.40
2024-03-06T07:53:33.523Z,7.40
2024-03-06T07:56:21.055Z,7.30
2024-03-06T07:59:08.625Z,7.40
2024-03-06T08:01:57.042Z,7.40
2024-03-06T08:04:44.358Z,7.50
2024-03-06T08:07:32.523Z,7.50
2024-03-06T08:10:20.079Z,7.60
2024-03-06T08:13:07.380Z,7.70
2024-03-06T08:15:55.061Z,7.70
2024-03-06T08:18:42.358Z,7.80
2024-03-06T08:21:29.821Z,7.90
2024-03-06T08:24:20.011Z,8.10
2024-03-06T08:27:07.411Z,8.20
2024-03-06T08:29:54.979Z,8.30
2024-03-06T08:32:45.197Z,8.40
2024-03-06T08:35:33.175Z,8.50
2024-03-06T08:38:23.277Z,8.60
2024-03-06T08:41:10.653Z,8.70
2024-03-06T08:43:58.210Z,8.70
2024-03-06T08:46:45.614Z,8.90
2024-03-06T08:49:32.994Z,9.00
2024-03-06T08:52:22.128Z,9.10
2024-03-06T08:55:10.522Z,9.20
2024-03-06T08:57:58.147Z,9.20
2024-03-06T09:00:45.550Z,9.20
2024-03-06T09:03:32.910Z,9.30
2024-03-06T09:06:20.257Z,9.30
2024-03-06T09:09:07.562Z,9.30
2024-03-06T09:11:56.529Z,9.40
2024-03-06T09:14:43.956Z,9.60
2024-03-06T09:17:32.786Z,9.60
2024-03-06T09:20:23.083Z,9.70
2024-03-06T09:23:12.086Z,9.90
2024-03-06T09:25:59.958Z,9.80
2024-03-06T09:28:47.531Z,10.00
2024-03-06T09:31:35.068Z,10.10
2024-03-06T09:34:22.903Z,10.20
2024-03-06T09:37:11.513Z,10.20
2024-03-06T09:40:01.393Z,10.30
2024-03-06T09:42:50.338Z,10.30
2024-03-06T09:45:40.824Z,10.50
2024-03-06T09:48:30.703Z,10.50
2024-03-06T09:51:18.623Z,10.50
2024-03-06T09:54:08.979Z,10.50
2024-03-06T09:56:59.634Z,10.50
2024-03-06T09:59:47.284Z,10.70
2024-03-06T10:02:43.034Z,10.80
2024-03-06T10:05:34.041Z,10.90
2024-03-06T10:08:23.149Z,11.10
2024-03-06T10:11:12.531Z,11.20
2024-03-06T10:14:00.167Z,11.10
2024-03-06T10:17:00.825Z,11.10
2024-03-06T10:19:51.637Z,11.20
2024-03-06T10:22:39.391Z,11.30
2024-03-06T10:25:31.870Z,11.40
2024-03-06T10:28:21.831Z,11.50
2024-03-06T10:31:10.585Z,11.50
2024-03-06T10:34:00.725Z,11.70
2024-03-06T10:37:01.064Z,11.80
2024-03-06T10:39:53.614Z,11.90
2024-03-06T10:42:43.269Z,11.90
2024-03-06T10:45:36.886Z,11.90
2024-03-06T10:48:27.975Z,12.00
2024-03-06T10:51:17.969Z,12.10
2024-03-06T10:54:08.581Z,12.20
2024-03-06T10:56:57.915Z,12.30
2024-03-06T10:59:51.845Z,12.40
2024-03-06T11:02:50.263Z,12.50
2024-03-06T11:05:45.082Z,12.60
2024-03-06T11:08:35.662Z,12.70
2024-03-06T11:11:26.092Z,12.70
2024-03-06T11:14:15.688Z,12.70
2024-03-06T11:17:15.331Z,12.80
2024-03-06T11:20:23.679Z,12.90
2024-03-06T11:23:11.559Z,12.90
2024-03-06T11:26:07.029Z,13.10
2024-03-06T11:28:54.657Z,13.10
2024-03-06T11:32:11.299Z,13.20
2024-03-06T11:35:11.848Z,13.20
2024-03-06T11:38:01.708Z,13.30
2024-03-06T11:40:52.720Z,13.20
2024-03-06T11:43:49.498Z,13.10
2024-03-06T11:46:54.450Z,13.20
2024-03-06T11:49:44.453Z,13.20
2024-03-06T11:52:33.109Z,13.20
2024-03-06T11:55:22.618Z,13.20
2024-03-06T11:58:14.114Z,13.10
2024-03-06T12:01:04.881Z,13.20
2024-03-06T12:03:55.646Z,13.30
2024-03-06T12:06:45.369Z,13.40
2024-03-06T12:09:37.581Z,13.50
2024-03-06T12:12:29.639Z,13.50
2024-03-06T12:15:25.786Z,13.50
2024-03-06T12:18:15.155Z,13.40
2024-03-06T12:21:06.753Z,13.50
2024-03-06T12:24:12.877Z,13.50
2024-03-06T12:27:08.582Z,13.60
2024-03-06T12:30:06.999Z,13.60
2024-03-06T12:33:17.599Z,13.70
2024-03-06T12:36:28.426Z,13.70
2024-03-06T12:42:35.435Z,13.70
2024-03-06T12:45:25.725Z,13.70
2024-03-06T12:48:16.892Z,13.70
2024-03-06T12:51:10.933Z,13.70
2024-03-06T12:54:01.071Z,13.80
2024-03-06T12:56:53.775Z,13.90
2024-03-06T12:59:52.021Z,13.80
2024-03-06T13:02:50.938Z,13.80
2024-03-06T13:05:38.785Z,13.70
2024-03-06T13:08:27.639Z,13.70
2024-03-06T13:11:16.155Z,13.60
2024-03-06T13:14:04.887Z,13.60
2024-03-06T13:16:53.407Z,13.60
2024-03-06T13:19:40.749Z,13.60
2024-03-06T13:22:28.091Z,13.60
2024-03-06T13:25:17.129Z,13.40
2024-03-06T13:28:06.636Z,13.30
2024-03-06T13:30:55.270Z,13.30
2024-03-06T13:33:45.258Z,13.30
2024-03-06T13:36:33.030Z,13.30
2024-03-06T13:39:20.423Z,13.30
2024-03-06T13:42:12.254Z,13.30
2024-03-06T13:45:00.462Z,13.20
2024-03-06T13:47:49.422Z,13.20
2024-03-06T13:50:38.537Z,13.20
2024-03-06T13:53:26.175Z,13.20
2024-03-06T13:56:13.740Z,13.20
2024-03-06T13:59:03.605Z,13.20
2024-03-06T14:01:53.705Z,13.10
2024-03-06T14:04:44.245Z,13.10
2024-03-06T14:07:31.649Z,13.10
2024-03-06T14:10:23.938Z,12.90
2024-03-06T14:13:11.412Z,12.80
2024-03-06T14:16:03.937Z,12.80
2024-03-06T14:18:55.254Z,12.70
2024-03-06T14:21:45.993Z,12.70
2024-03-06T14:24:35.860Z,12.50
2024-03-06T14:27:24.142Z,12.40
2024-03-06T14:30:15.894Z,12.40
2024-03-06T14:33:07.183Z,12.30
2024-03-06T14:35:55.545Z,12.20
2024-03-06T14:38:43.292Z,12.20
2024-03-06T14:41:33.559Z,12.20
2024-03-06T14:44:21.269Z,12.10
2024-03-06T14:47:11.932Z,12.00
2024-03-06T14:49:59.545Z,12.00
2024-03-06T14:52:47.472Z,11.80
2024-03-06T14:55:35.366Z,11.80
2024-03-06T14:58:23.237Z,11.80
2024-03-06T15:01:15.401Z,11.80
2024-03-06T15:04:03.037Z,11.70
2024-03-06T15:06:53.595Z,11.60
2024-03-06T15:09:42.263Z,11.50
2024-03-06T15:12:34.037Z,11.40
2024-03-06T15:15:22.411Z,11.40
2024-03-06T15:18:28.010Z,11.40
2024-03-06T15:21:23.317Z,11.30
2024-03-06T15:24:10.693Z,11.30
2024-03-06T15:26:59.092Z,11.20
2024-03-06T15:29:47.569Z,11.20
2024-03-06T15:32:35.980Z,11.10
2024-03-06T15:35:25.163Z,11.10
2024-03-06T15:38:13.620Z,11.00
2024-03-06T15:41:01.021Z,11.00
2024-03-06T15:43:48.354Z,11.00
2024-03-06T15:46:35.633Z,10.90
2024-03-06T15:49:27.460Z,10.80
2024-03-06T15:52:16.437Z,10.70
2024-03-06T15:55:04.115Z,10.70
2024-03-06T15:57:51.710Z,10.60
2024-03-06T16:00:38.962Z,10.50
2024-03-06T16:03:27.306Z,10.50
2024-03-06T16:06:19.658Z,10.50
2024-03-06T16:09:20.039Z,10.40
2024-03-06T16:12:07.844Z,10.40
2024-03-06T16:14:55.282Z,10.30
2024-03-06T16:17:44.424Z,10.30
2024-03-06T16:20:31.912Z,10.20
2024-03-06T16:23:20.664Z,10.10
2024-03-06T16:26:08.090Z,10.00
2024-03-06T16:28:56.709Z,10.00
2024-03-06T16:31:45.518Z,9.90
2024-03-06T16:34:34.787Z,9.80
2024-03-06T16:37:22.134Z,9.80
2024-03-06T16:40:11.693Z,9.70
2024-03-06T16:43:00.494Z,9.60
2024-03-06T16:45:48.605Z,9.60
2024-03-06T16:48:36.838Z,9.50
2024-03-06T16:51:24.346Z,9.50
2024-03-06T16:54:11.937Z,9.40
2024-03-06T16:56:59.536Z,9.40
2024-03-06T16:59:46.946Z,9.30
2024-03-06T17:02:34.448Z,9.20
2024-03-06T17:05:23.552Z,9.20
2024-03-06T17:08:12.087Z,9.10
2024-03-06T17:11:00.484Z,9.00
2024-03-06T17:13:48.225Z,8.90
2024-03-06T17:16:36.012Z,8.90
2024-03-06T17:19:23.338Z,8.80
2024-03-06T17:22:10.655Z,8.80
2024-03-06T17:24:58.143Z,8.70
2024-03-06T17:27:46.047Z,8.70
2024-03-06T17:30:33.332Z,8.60
2024-03-06T17:33:21.411Z,8.50
2024-03-06T17:36:09.861Z,8.50
2024-03-06T17:38:58.926Z,8.40
2024-03-06T17:41:49.094Z,8.30
2024-03-06T17:44:36.775Z,8.20
2024-03-06T17:47:25.020Z,8.20
2024-03-06T17:50:14.005Z,8.10
2024-03-06T17:53:03.981Z,8.00
2024-03-06T17:55:52.754Z,8.00
2024-03-06T17:58:40.038Z,7.90
2024-03-06T18:01:27.575Z,7.80
2024-03-06T18:04:14.920Z,7.80
2024-03-06T18:07:02.270Z,7.80
2024-03-06T18:09:51.853Z,7.70
2024-03-06T18:12:39.306Z,7.60
2024-03-06T18:15:27.968Z,7.60
2024-03-06T18:18:15.604Z,7.50
2024-03-06T18:21:05.768Z,7.50
2024-03-06T18:23:53.138Z,7.40
2024-03-06T18:26:40.894Z,7.40
2024-03-06T18:29:29.714Z,7.30
2024-03-06T18:32:18.338Z,7.30
2024-03-06T18:35:06.395Z,7.20
2024-03-06T18:37:53.709Z,7.20
2024-03-06T18:40:41.109Z,7.10
2024-03-06T18:43:28.489Z,7.10
2024-03-06T18:46:16.421Z,7.00
2024-03-06T18:49:03.766Z,7.00
2024-03-06T18:51:51.455Z,6.90
2024-03-06T18:54:41.275Z,6.90
2024-03-06T18:57:29.090Z,6.80
2024-03-06T19:00:16.851Z,6.80
2024-03-06T19:03:04.433Z,6.80
2024-03-06T19:05:54.316Z,6.80
2024-03-06T19:08:42.185Z,6.70
2024-03-06T19:11:29.676Z,6.70
2024-03-06T19:14:17.171Z,6.60
2024-03-06T19:17:05.308Z,6.60
2024-03-06T19:19:54.014Z,6.50
2024-03-06T19:22:41.643Z,6.50
2024-03-06T19:25:29.539Z,6.50
2024-03-06T19:28:16.829Z,6.40
2024-03-06T19:31:04.350Z,6.40
2024-03-06T19:33:52.032Z,6.40
2024-03-06T19:36:39.726Z,6.40
2024-03-06T19:39:26.951Z,6.30
2024-03-06T19:42:14.284Z,6.30
2024-03-06T19:45:04.063Z,6.30
2024-03-06T19:47:51.582Z,6.30
2024-03-06T19:50:40.746Z,6.20
2024-03-06T19:53:30.354Z,6.20
2024-03-06T19:56:18.110Z,6.20
2024-03-06T19:59:05.869Z,6.30
2024-03-06T20:01:57.130Z,6.30
2024-03-06T20:04:44.809Z,6.40
2024-03-06T20:07:32.670Z,6.40
2024-03-06T20:10:21.257Z,6.40
2024-03-06T20:13:09.756Z,6.40
2024-03-06T20:15:57.590Z,6.40
2024-03-06T20:18:45.069Z,6.40
2024-03-06T20:21:32.838Z,6.40
2024-03-06T20:24:20.510Z,6.40
2024-03-06T20:27:07.961Z,6.40
2024-03-06T20:29:56.062Z,6.40
2024-03-06T20:32:43.407Z,6.40
2024-03-06T20:35:30.872Z,6.40
2024-03-06T20:38:19.860Z,6.30
2024-03-06T20:41:09.097Z,6.30
2024-03-06T20:43:56.516Z,6.30
2024-03-06T20:46:45.704Z,6.30
2024-03-06T20:49:34.278Z,6.20
2024-03-06T20:52:21.784Z,6.20
2024-03-06T20:55:09.990Z,6.20
2024-03-06T20:57:57.813Z,6.30
2024-03-06T21:00:45.488Z,6.20
2024-03-06T21:03:33.011Z,6.20
2024-03-06T21:06:20.444Z,6.10
2024-03-06T21:09:07.860Z,6.10
2024-03-06T21:11:55.647Z,6.10
2024-03-06T21:14:43.175Z,6.10
2024-03-06T21:17:30.723Z,6.10
2024-03-06T21:20:18.580Z,6.10
2024-03-06T21:23:07.427Z,6.10
2024-03-06T21:25:55.076Z,6.20
2024-03-06T21:28:42.500Z,6.20
2024-03-06T21:31:32.691Z,6.10
2024-03-06T21:34:20.093Z,6.20
2024-03-06T21:37:07.470Z,6.20
2024-03-06T21:39:55.216Z,6.20
2024-03-06T21:42:43.640Z,6.30
2024-03-06T21:45:33.925Z,6.20
2024-03-06T21:48:22.651Z,6.30
2024-03-06T21:51:10.358Z,6.30
2024-03-06T21:54:00.089Z,6.30
2024-03-06T21:56:47.540Z,6.30
2024-03-06T21:59:34.973Z,6.40
2024-03-06T22:02:22.879Z,6.40
2024-03-06T22:05:10.470Z,6.40
2024-03-06T22:07:57.834Z,6.40
2024-03-06T22:10:45.305Z,6.50
2024-03-06T22:13:35.572Z,6.50
2024-03-06T22:16:23.645Z,6.50
2024-03-06T22:19:11.099Z,6.50
2024-03-06T22:21:58.575Z,6.60
2024-03-06T22:24:45.907Z,6.60
2024-03-06T22:27:33.444Z,6.60
2024-03-06T22:30:20.966Z,6.70
2024-03-06T22:33:08.736Z,6.70
2024-03-06T22:35:56.730Z,6.70
2024-03-06T22:38:48.613Z,6.70
2024-03-06T22:41:39.182Z,6.80
2024-03-06T22:44:28.025Z,6.80
2024-03-06T22:47:15.475Z,6.80
2024-03-06T22:50:02.963Z,6.80
2024-03-06T22:52:50.334Z,6.80
2024-03-06T22:55:37.774Z,6.90
2024-03-06T22:58:25.550Z,6.90
2024-03-06T23:01:13.304Z,7.00
2024-03-06T23:04:00.714Z,7.00
2024-03-06T23:06:48.750Z,7.10
2024-03-06T23:09:36.307Z,7.20
2024-03-06T23:12:23.817Z,7.20
2024-03-06T23:15:11.273Z,7.30
2024-03-06T23:17:58.707Z,7.30
2024-03-06T23:20:46.130Z,7.40
2024-03-06T23:23:33.796Z,7.40
2024-03-06T23:26:21.433Z,7.40
2024-03-06T23:29:09.218Z,7.40
2024-03-06T23:31:56.686Z,7.40
2024-03-06T23:34:44.126Z,7.50
2024-03-06T23:37:33.040Z,7.50
2024-03-06T23:40:20.412Z,7.50
2024-03-06T23:43:08.521Z,7.50
2024-03-06T23:45:57.250Z,7.50
2024-03-06T23:48:44.604Z,7.60
2024-03-06T23:51:32.316Z,7.60
2024-03-06T23:54:20.506Z,7.60
2024-03-06T23:57:07.753Z,7.60
2024-03-06T23:59:56.034Z,7.60
